createdAt,value
2023-01-27T00:00:44.511Z,51.25
2023-01-27T00:01:44.514Z,49.12
2023-01-27T00:02:44.549Z,50.82
2023-01-27T00:03:44.589Z,54.91
2023-01-27T00:04:44.529Z,53.19
2023-01-27T00:05:44.528Z,51.58
2023-01-27T00:06:44.540Z,52.00
2023-01-27T00:07:44.530Z,54.04
2023-01-27T00:08:44.557Z,52.80
2023-01-27T00:09:44.543Z,55.44
2023-01-27T00:10:44.542Z,50.19
2023-01-27T00:11:44.526Z,51.52
2023-01-27T00:12:44.536Z,54.82
2023-01-27T00:13:44.540Z,51.52
2023-01-27T00:14:44.547Z,46.48
2023-01-27T00:15:44.566Z,51.49
2023-01-27T00:16:44.574Z,51.89
2023-01-27T00:17:44.540Z,52.76
2023-01-27T00:18:44.562Z,53.23
2023-01-27T00:19:44.568Z,50.48
2023-01-27T00:20:44.581Z,50.54
2023-01-27T00:21:44.565Z,53.93
2023-01-27T00:22:44.581Z,53.08
2023-01-27T00:23:44.579Z,49.22
2023-01-27T00:24:44.570Z,50.77
2023-01-27T00:25:44.591Z,52.55
2023-01-27T00:26:44.585Z,51.44
2023-01-27T00:27:44.604Z,52.00
2023-01-27T00:28:44.614Z,52.01
2023-01-27T00:29:44.590Z,51.97
2023-01-27T00:30:44.615Z,52.96
2023-01-27T00:31:44.667Z,53.21
2023-01-27T00:32:44.647Z,53.06
2023-01-27T00:33:44.580Z,53.24
2023-01-27T00:34:44.595Z,53.45
2023-01-27T00:35:44.579Z,53.62
2023-01-27T00:36:44.601Z,54.82
2023-01-27T00:37:44.572Z,56.40
2023-01-27T00:38:44.556Z,56.01
2023-01-27T00:39:44.561Z,54.24
2023-01-27T00:40:44.562Z,52.12
2023-01-27T00:41:44.554Z,54.62
2023-01-27T00:42:44.546Z,55.12
2023-01-27T00:43:44.545Z,53.52
2023-01-27T00:44:44.553Z,53.58
2023-01-27T00:45:44.537Z,56.04
2023-01-27T00:46:44.582Z,55.84
2023-01-27T00:47:44.531Z,52.53
2023-01-27T00:48:44.533Z,56.47
2023-01-27T00:49:44.521Z,55.44
2023-01-27T00:50:44.508Z,52.70
2023-01-27T00:51:44.500Z,53.51
2023-01-27T00:52:44.489Z,54.64
2023-01-27T00:53:44.490Z,55.88
2023-01-27T00:54:44.480Z,55.17
2023-01-27T00:55:44.484Z,54.13
2023-01-27T00:56:44.459Z,53.79
2023-01-27T00:57:44.463Z,54.88
2023-01-27T00:58:44.466Z,55.47
2023-01-27T00:59:44.471Z,52.46
2023-01-27T01:00:44.457Z,55.51
2023-01-27T01:01:44.496Z,53.61
2023-01-27T01:02:44.531Z,52.38
2023-01-27T01:03:44.445Z,54.42
2023-01-27T01:04:44.440Z,55.57
2023-01-27T01:05:44.449Z,53.79
2023-01-27T01:06:44.440Z,54.57
2023-01-27T01:07:44.433Z,52.97
2023-01-27T01:08:44.424Z,53.62
2023-01-27T01:09:44.427Z,55.34
2023-01-27T01:10:44.423Z,52.90
2023-01-27T01:11:44.398Z,54.25
2023-01-27T01:12:44.406Z,51.61
2023-01-27T01:13:44.373Z,57.30
2023-01-27T01:14:44.389Z,57.68
2023-01-27T01:15:44.420Z,56.12
2023-01-27T01:16:44.376Z,51.76
2023-01-27T01:17:44.345Z,57.17
2023-01-27T01:18:44.356Z,53.68
2023-01-27T01:19:44.353Z,56.43
2023-01-27T01:20:44.347Z,55.90
2023-01-27T01:21:44.316Z,52.94
2023-01-27T01:22:44.313Z,53.74
2023-01-27T01:23:44.315Z,53.57
2023-01-27T01:24:44.332Z,55.32
2023-01-27T01:25:44.289Z,53.26
2023-01-27T01:26:44.293Z,55.35
2023-01-27T01:27:44.289Z,53.99
2023-01-27T01:28:44.284Z,53.81
2023-01-27T01:29:44.299Z,56.03
2023-01-27T01:30:44.298Z,51.49
2023-01-27T01:31:44.329Z,55.70
2023-01-27T01:32:44.269Z,54.59
2023-01-27T01:33:44.267Z,55.79
2023-01-27T01:34:44.292Z,55.03
2023-01-27T01:35:44.260Z,57.24
2023-01-27T01:36:44.270Z,53.92
2023-01-27T01:37:44.261Z,56.73
2023-01-27T01:38:44.269Z,53.75
2023-01-27T01:39:44.267Z,55.47
2023-01-27T01:40:44.818Z,55.10
2023-01-27T01:41:44.273Z,52.44
2023-01-27T01:42:44.272Z,52.60
2023-01-27T01:43:44.269Z,54.46
2023-01-27T01:44:44.280Z,54.87
2023-01-27T01:45:44.279Z,51.81
2023-01-27T01:46:44.306Z,55.58
2023-01-27T01:47:44.262Z,58.00
2023-01-27T01:48:44.283Z,53.44
2023-01-27T01:49:44.267Z,54.21
2023-01-27T01:50:44.271Z,55.72
2023-01-27T01:51:44.289Z,53.88
2023-01-27T01:52:44.273Z,53.57
2023-01-27T01:53:44.277Z,55.93
2023-01-27T01:54:44.276Z,54.91
2023-01-27T01:55:44.294Z,54.17
2023-01-27T01:56:44.294Z,52.64
2023-01-27T01:57:44.294Z,52.97
2023-01-27T01:58:44.536Z,56.18
2023-01-27T01:59:44.297Z,53.62
2023-01-27T02:00:44.286Z,56.96
2023-01-27T02:01:44.286Z,53.43
2023-01-27T02:02:44.382Z,54.29
2023-01-27T02:03:44.292Z,57.04
2023-01-27T02:04:44.300Z,52.07
2023-01-27T02:05:44.293Z,53.55
2023-01-27T02:06:44.304Z,53.37
2023-01-27T02:07:44.297Z,53.72
2023-01-27T02:08:44.342Z,55.23
2023-01-27T02:09:44.289Z,53.61
2023-01-27T02:10:44.290Z,56.66
2023-01-27T02:11:44.284Z,55.22
2023-01-27T02:12:44.283Z,55.50
2023-01-27T02:13:44.314Z,54.36
2023-01-27T02:14:44.287Z,52.16
2023-01-27T02:15:44.279Z,54.72
2023-01-27T02:16:44.368Z,53.67
2023-01-27T02:17:44.287Z,56.05
2023-01-27T02:18:44.292Z,55.12
2023-01-27T02:19:44.284Z,54.77
2023-01-27T02:20:44.278Z,54.45
2023-01-27T02:21:44.282Z,52.69
2023-01-27T02:22:44.271Z,55.62
2023-01-27T02:23:44.283Z,53.95
2023-01-27T02:24:44.274Z,50.93
2023-01-27T02:25:44.270Z,51.55
2023-01-27T02:26:44.288Z,51.79
2023-01-27T02:27:44.280Z,52.43
2023-01-27T02:28:44.280Z,53.10
2023-01-27T02:29:44.280Z,53.50
2023-01-27T02:30:44.367Z,55.81
2023-01-27T02:31:44.456Z,53.93
2023-01-27T02:32:44.292Z,53.53
2023-01-27T02:33:44.287Z,52.92
2023-01-27T02:34:44.311Z,55.68
2023-01-27T02:35:44.316Z,56.02
2023-01-27T02:36:44.313Z,52.08
2023-01-27T02:37:44.307Z,55.46
2023-01-27T02:38:44.297Z,52.30
2023-01-27T02:39:44.296Z,52.61
2023-01-27T02:40:44.303Z,54.11
2023-01-27T02:41:44.301Z,53.52
2023-01-27T02:42:44.302Z,55.53
2023-01-27T02:43:44.309Z,53.73
2023-01-27T02:44:44.302Z,53.87
2023-01-27T02:45:44.298Z,53.84
2023-01-27T02:46:44.330Z,52.85
2023-01-27T02:47:44.306Z,52.99
2023-01-27T02:48:44.322Z,53.60
2023-01-27T02:49:44.296Z,53.84
2023-01-27T02:50:44.315Z,53.49
2023-01-27T02:51:44.313Z,55.30
2023-01-27T02:52:44.322Z,53.75
2023-01-27T02:53:44.350Z,52.98
2023-01-27T02:54:44.348Z,54.49
2023-01-27T02:55:44.316Z,54.01
2023-01-27T02:56:44.319Z,51.88
2023-01-27T02:57:44.319Z,53.09
2023-01-27T02:58:44.330Z,51.03
2023-01-27T02:59:44.337Z,54.01
2023-01-27T03:00:44.322Z,54.70
2023-01-27T03:01:44.386Z,54.93
2023-01-27T03:02:44.366Z,52.86
2023-01-27T03:03:44.453Z,54.00
2023-01-27T03:04:44.342Z,54.37
2023-01-27T03:05:44.351Z,51.15
2023-01-27T03:06:44.351Z,53.84
2023-01-27T03:07:44.345Z,55.68
2023-01-27T03:08:44.360Z,51.42
2023-01-27T03:09:44.353Z,54.10
2023-01-27T03:10:44.385Z,53.44
2023-01-27T03:11:44.359Z,50.56
2023-01-27T03:12:44.374Z,51.84
2023-01-27T03:13:44.457Z,51.39
2023-01-27T03:14:44.375Z,51.71
2023-01-27T03:15:44.414Z,50.97
2023-01-27T03:16:44.392Z,51.08
2023-01-27T03:17:44.388Z,51.29
2023-01-27T03:18:44.405Z,53.63
2023-01-27T03:19:44.404Z,51.55
2023-01-27T03:20:44.437Z,53.66
2023-01-27T03:21:44.415Z,52.87
2023-01-27T03:22:44.411Z,54.03
2023-01-27T03:23:44.413Z,53.22
2023-01-27T03:24:44.418Z,53.61
2023-01-27T03:25:44.417Z,52.14
2023-01-27T03:26:44.418Z,50.78
2023-01-27T03:27:44.423Z,52.61
2023-01-27T03:28:44.419Z,53.30
2023-01-27T03:29:44.416Z,53.39
2023-01-27T03:30:44.477Z,52.40
2023-01-27T03:31:44.574Z,49.10
2023-01-27T03:32:44.418Z,51.17
2023-01-27T03:33:44.412Z,53.81
2023-01-27T03:34:44.410Z,50.27
2023-01-27T03:35:44.417Z,46.94
2023-01-27T03:36:44.425Z,51.97
2023-01-27T03:37:44.432Z,53.74
2023-01-27T03:38:44.443Z,52.49
2023-01-27T03:39:44.436Z,52.90
2023-01-27T03:40:44.441Z,52.34
2023-01-27T03:41:44.441Z,52.31
2023-01-27T03:42:44.452Z,51.51
2023-01-27T03:43:44.461Z,52.60
2023-01-27T03:44:44.459Z,53.64
2023-01-27T03:45:44.468Z,50.10
2023-01-27T03:46:44.469Z,54.57
2023-01-27T03:47:44.471Z,50.91
2023-01-27T03:48:44.464Z,50.84
2023-01-27T03:49:44.462Z,51.42
2023-01-27T03:50:44.471Z,50.79
2023-01-27T03:51:44.468Z,51.41
2023-01-27T03:52:44.463Z,52.04
2023-01-27T03:53:44.477Z,49.56
2023-01-27T03:54:44.476Z,51.82
2023-01-27T03:55:44.482Z,49.12
2023-01-27T03:56:44.479Z,53.37
2023-01-27T03:57:44.485Z,50.85
2023-01-27T03:58:44.498Z,51.55
2023-01-27T03:59:44.507Z,51.12
2023-01-27T04:00:44.508Z,51.12
2023-01-27T04:01:44.557Z,47.99
2023-01-27T04:02:44.533Z,47.95
2023-01-27T04:03:44.526Z,50.34
2023-01-27T04:04:44.521Z,50.51
2023-01-27T04:05:44.526Z,50.89
2023-01-27T04:06:44.519Z,51.55
2023-01-27T04:07:44.537Z,51.60
2023-01-27T04:08:44.537Z,50.95
2023-01-27T04:09:44.533Z,48.83
2023-01-27T04:10:44.516Z,50.02
2023-01-27T04:11:44.532Z,52.18
2023-01-27T04:12:44.507Z,51.90
2023-01-27T04:13:44.505Z,48.62
2023-01-27T04:14:44.515Z,48.88
2023-01-27T04:15:44.519Z,46.78
2023-01-27T04:16:44.505Z,49.06
2023-01-27T04:17:44.504Z,50.72
2023-01-27T04:18:44.505Z,47.94
2023-01-27T04:19:44.497Z,50.02
2023-01-27T04:20:44.510Z,45.19
2023-01-27T04:21:44.492Z,49.15
2023-01-27T04:22:44.505Z,49.41
2023-01-27T04:23:44.499Z,47.15
2023-01-27T04:24:44.501Z,47.83
2023-01-27T04:25:44.496Z,46.99
2023-01-27T04:26:44.488Z,46.91
2023-01-27T04:27:44.495Z,46.42
2023-01-27T04:28:45.001Z,44.57
2023-01-27T04:29:44.502Z,46.27
2023-01-27T04:30:44.505Z,43.68
2023-01-27T04:31:44.581Z,44.73
2023-01-27T04:32:44.502Z,47.77
2023-01-27T04:33:44.511Z,47.20
2023-01-27T04:34:44.528Z,48.19
2023-01-27T04:35:44.513Z,47.65
2023-01-27T04:36:44.521Z,47.67
2023-01-27T04:37:44.526Z,46.27
2023-01-27T04:38:44.528Z,45.82
2023-01-27T04:39:44.551Z,47.38
2023-01-27T04:40:44.538Z,46.80
2023-01-27T04:41:44.535Z,43.66
2023-01-27T04:42:44.534Z,46.91
2023-01-27T04:43:44.541Z,44.95
2023-01-27T04:44:44.557Z,45.50
2023-01-27T04:45:44.640Z,47.19
2023-01-27T04:46:44.565Z,44.04
2023-01-27T04:47:44.568Z,45.41
2023-01-27T04:48:44.563Z,45.78
2023-01-27T04:49:44.580Z,47.82
2023-01-27T04:50:44.564Z,45.17
2023-01-27T04:51:46.229Z,45.09
2023-01-27T04:52:44.568Z,45.70
2023-01-27T04:53:44.579Z,44.64
2023-01-27T04:54:44.590Z,45.58
2023-01-27T04:55:44.603Z,45.21
2023-01-27T04:56:44.592Z,46.65
2023-01-27T04:57:44.578Z,45.47
2023-01-27T04:58:44.579Z,43.00
2023-01-27T04:59:44.581Z,45.43
2023-01-27T05:00:44.600Z,45.96
2023-01-27T05:01:44.625Z,44.05
2023-01-27T05:02:44.683Z,45.51
2023-01-27T05:03:44.583Z,44.87
2023-01-27T05:04:44.587Z,42.92
2023-01-27T05:05:44.587Z,45.21
2023-01-27T05:06:44.597Z,44.10
2023-01-27T05:07:44.593Z,42.61
2023-01-27T05:08:44.588Z,42.90
2023-01-27T05:09:44.612Z,39.89
2023-01-27T05:10:44.596Z,46.05
2023-01-27T05:11:44.613Z,42.75
2023-01-27T05:12:44.621Z,42.92
2023-01-27T05:13:44.632Z,45.60
2023-01-27T05:14:44.621Z,43.34
2023-01-27T05:15:44.727Z,42.83
2023-01-27T05:16:44.723Z,43.86
2023-01-27T05:17:44.635Z,42.99
2023-01-27T05:18:44.632Z,43.16
2023-01-27T05:19:44.635Z,41.54
2023-01-27T05:20:44.630Z,45.12
2023-01-27T05:21:44.643Z,42.18
2023-01-27T05:22:44.636Z,41.61
2023-01-27T05:23:44.642Z,44.18
2023-01-27T05:24:44.641Z,39.42
2023-01-27T05:25:44.647Z,38.37
2023-01-27T05:26:44.653Z,41.93
2023-01-27T05:27:44.649Z,39.27
2023-01-27T05:28:44.658Z,41.14
2023-01-27T05:29:44.660Z,39.95
2023-01-27T05:30:44.699Z,41.15
2023-01-27T05:31:44.821Z,41.68
2023-01-27T05:32:44.671Z,39.93
2023-01-27T05:33:44.680Z,42.81
2023-01-27T05:34:44.680Z,40.04
2023-01-27T05:35:44.717Z,43.18
2023-01-27T05:36:44.682Z,40.84
2023-01-27T05:37:44.692Z,41.72
2023-01-27T05:38:44.692Z,43.30
2023-01-27T05:39:44.688Z,42.02
2023-01-27T05:40:44.698Z,42.96
2023-01-27T05:41:44.698Z,40.24
2023-01-27T05:42:44.704Z,41.93
2023-01-27T05:43:44.702Z,41.11
2023-01-27T05:44:44.691Z,44.03
2023-01-27T05:45:44.680Z,40.96
2023-01-27T05:46:45.227Z,39.33
2023-01-27T05:47:44.679Z,40.24
2023-01-27T05:48:44.690Z,37.08
2023-01-27T05:49:44.680Z,40.27
2023-01-27T05:50:44.679Z,39.75
2023-01-27T05:51:44.679Z,39.81
2023-01-27T05:52:44.687Z,40.55
2023-01-27T05:53:44.676Z,39.09
2023-01-27T05:54:44.695Z,39.95
2023-01-27T05:55:44.741Z,39.44
2023-01-27T05:56:44.672Z,40.80
2023-01-27T05:57:44.691Z,39.50
2023-01-27T05:58:44.732Z,39.63
2023-01-27T05:59:44.677Z,38.04
2023-01-27T06:00:44.679Z,36.99
2023-01-27T06:01:44.843Z,39.04
2023-01-27T06:02:44.824Z,38.25
2023-01-27T06:03:44.692Z,41.45
2023-01-27T06:04:44.680Z,38.39
2023-01-27T06:05:44.665Z,40.89
2023-01-27T06:06:44.677Z,38.72
2023-01-27T06:07:44.673Z,39.05
2023-01-27T06:08:44.680Z,37.56
2023-01-27T06:09:44.679Z,41.37
2023-01-27T06:10:44.682Z,38.88
2023-01-27T06:11:44.689Z,38.14
2023-01-27T06:12:44.685Z,40.02
2023-01-27T06:13:44.687Z,37.53
2023-01-27T06:14:44.704Z,37.36
2023-01-27T06:15:44.676Z,39.82
2023-01-27T06:16:44.759Z,37.37
2023-01-27T06:17:44.690Z,36.93
2023-01-27T06:18:44.682Z,39.52
2023-01-27T06:19:44.681Z,38.06
2023-01-27T06:20:44.678Z,40.91
2023-01-27T06:21:44.693Z,38.29
2023-01-27T06:22:44.691Z,38.90
2023-01-27T06:23:44.705Z,41.19
2023-01-27T06:24:44.690Z,38.71
2023-01-27T06:25:44.698Z,37.99
2023-01-27T06:26:44.702Z,38.46
2023-01-27T06:27:44.705Z,38.79
2023-01-27T06:28:44.725Z,36.29
2023-01-27T06:29:44.711Z,40.23
2023-01-27T06:30:44.836Z,35.05
2023-01-27T06:31:44.762Z,36.42
2023-01-27T06:32:44.715Z,37.67
2023-01-27T06:33:44.743Z,38.07
2023-01-27T06:34:44.748Z,36.69
2023-01-27T06:35:44.736Z,40.48
2023-01-27T06:36:44.730Z,39.04
2023-01-27T06:37:44.735Z,41.03
2023-01-27T06:38:44.791Z,36.67
2023-01-27T06:39:44.749Z,40.56
2023-01-27T06:40:44.769Z,39.76
2023-01-27T06:41:44.728Z,39.28
2023-01-27T06:42:44.742Z,39.07
2023-01-27T06:43:44.735Z,37.08
2023-01-27T06:44:44.730Z,39.68
2023-01-27T06:45:44.741Z,44.49
2023-01-27T06:46:44.783Z,41.60
2023-01-27T06:47:44.735Z,39.94
2023-01-27T06:48:44.737Z,46.07
2023-01-27T06:49:44.719Z,50.21
2023-01-27T06:50:44.718Z,54.36
2023-01-27T06:51:44.713Z,59.45
2023-01-27T06:52:44.712Z,62.74
2023-01-27T06:53:44.719Z,68.82
2023-01-27T06:54:44.707Z,77.91
2023-01-27T06:55:44.712Z,87.72
2023-01-27T06:56:44.695Z,93.03
2023-01-27T06:57:44.682Z,99.90
2023-01-27T06:58:44.703Z,105.73
2023-01-27T06:59:44.666Z,111.67
2023-01-27T07:00:44.669Z,116.97
2023-01-27T07:01:44.776Z,117.31
2023-01-27T07:02:44.750Z,119.33
2023-01-27T07:03:45.215Z,123.83
2023-01-27T07:04:44.731Z,131.83
2023-01-27T07:05:44.674Z,144.51
2023-01-27T09:01:44.715Z,119.73
2023-01-27T09:04:44.767Z,140.30
2023-01-27T09:06:44.655Z,145.71
2023-01-27T09:07:44.653Z,149.42
2023-01-27T09:08:44.686Z,144.57
2023-01-27T09:09:44.652Z,148.01
2023-01-27T09:10:44.683Z,148.60
2023-01-27T09:11:44.826Z,149.73
2023-01-27T09:12:44.730Z,150.69
2023-01-27T09:13:44.652Z,144.95
2023-01-27T09:14:44.736Z,99.81
2023-01-27T09:15:51.728Z,96.43
2023-01-27T09:16:44.693Z,71.94
2023-01-27T09:17:44.697Z,47.24
2023-01-27T09:18:44.694Z,55.64
2023-01-27T09:19:44.719Z,87.44
2023-01-27T09:20:44.726Z,100.36
2023-01-27T09:21:44.755Z,114.79
2023-01-27T09:22:44.853Z,119.90
2023-01-27T09:23:44.767Z,128.94
2023-01-27T09:24:44.769Z,137.63
2023-01-27T09:25:44.804Z,140.96
2023-01-27T09:26:44.793Z,143.56
2023-01-27T09:27:44.800Z,146.81
2023-01-27T09:28:44.808Z,150.27
2023-01-27T09:29:44.805Z,153.93
2023-01-27T09:30:46.223Z,154.83
2023-01-27T09:31:44.995Z,154.70
2023-01-27T09:32:44.853Z,160.18
2023-01-27T09:33:44.852Z,161.14
2023-01-27T09:34:44.842Z,166.07
2023-01-27T09:35:44.848Z,167.55
2023-01-27T09:36:44.855Z,171.71
2023-01-27T09:37:44.845Z,174.41
2023-01-27T09:38:44.876Z,176.20
2023-01-27T09:39:44.885Z,178.13
2023-01-27T09:40:44.857Z,179.68
2023-01-27T09:41:44.851Z,181.93
2023-01-27T09:42:44.867Z,183.64
2023-01-27T09:43:44.856Z,185.90
2023-01-27T09:44:44.857Z,187.98
2023-01-27T09:45:44.863Z,190.46
2023-01-27T09:46:44.865Z,199.17
2023-01-27T09:47:44.841Z,199.26
2023-01-27T09:48:44.840Z,199.89
2023-01-27T09:49:44.843Z,197.46
2023-01-27T09:50:44.837Z,196.55
2023-01-27T09:51:44.848Z,198.62
2023-01-27T09:52:47.793Z,200.47
2023-01-27T09:53:44.841Z,199.86
2023-01-27T09:54:44.852Z,200.36
2023-01-27T09:55:44.848Z,199.46
2023-01-27T09:56:44.864Z,199.90
2023-01-27T09:57:44.860Z,201.12
2023-01-27T09:58:44.846Z,202.03
2023-01-27T09:59:44.875Z,202.61
2023-01-27T10:00:45.784Z,204.31
2023-01-27T10:01:44.894Z,203.72
2023-01-27T10:02:44.839Z,205.04
2023-01-27T10:03:44.839Z,206.69
2023-01-27T10:04:44.871Z,207.10
2023-01-27T10:05:44.824Z,208.35
2023-01-27T10:06:44.831Z,208.55
2023-01-27T10:07:44.822Z,207.77
2023-01-27T10:08:44.824Z,209.86
2023-01-27T10:09:44.834Z,210.69
2023-01-27T10:10:44.807Z,213.30
2023-01-27T10:11:44.806Z,214.67
2023-01-27T10:12:44.802Z,213.70
2023-01-27T10:13:44.878Z,213.88
2023-01-27T10:14:44.807Z,215.24
2023-01-27T10:15:44.800Z,215.78
2023-01-27T10:16:44.806Z,216.69
2023-01-27T10:17:44.791Z,218.44
2023-01-27T10:18:44.771Z,214.76
2023-01-27T10:19:44.761Z,212.35
2023-01-27T10:20:45.286Z,216.38
2023-01-27T10:21:44.751Z,218.84
2023-01-27T10:22:44.909Z,221.09
2023-01-27T10:23:44.760Z,220.88
2023-01-27T10:24:44.756Z,219.41
2023-01-27T10:25:44.718Z,216.37
2023-01-27T10:26:44.767Z,215.45
2023-01-27T10:27:44.721Z,218.11
2023-01-27T10:28:44.717Z,219.81
2023-01-27T10:29:44.735Z,222.64
2023-01-27T10:30:44.782Z,222.04
2023-01-27T10:31:44.786Z,215.75
2023-01-27T10:32:44.856Z,216.37
2023-01-27T10:33:44.735Z,218.54
2023-01-27T10:34:44.687Z,222.42
2023-01-27T10:35:44.675Z,222.58
2023-01-27T10:36:44.701Z,222.74
2023-01-27T10:37:44.669Z,216.24
2023-01-27T10:38:44.681Z,214.12
2023-01-27T10:39:44.672Z,214.31
2023-01-27T10:44:44.686Z,219.03
2023-01-27T11:04:44.692Z,125.02
2023-01-27T11:05:44.669Z,132.24
2023-01-27T11:06:44.690Z,144.32
2023-01-27T11:07:44.711Z,157.87
2023-01-27T11:08:44.708Z,151.74
2023-01-27T11:09:44.745Z,153.02
2023-01-27T11:10:44.723Z,164.73
2023-01-27T11:11:44.781Z,170.57
2023-01-27T11:12:44.715Z,156.64
2023-01-27T11:13:44.819Z,142.00
2023-01-27T11:14:44.714Z,148.75
2023-01-27T11:15:44.714Z,145.73
2023-01-27T11:16:44.777Z,141.03
2023-01-27T11:17:44.735Z,135.24
2023-01-27T11:18:44.734Z,127.48
2023-01-27T11:19:44.848Z,135.83
2023-01-27T11:20:44.774Z,135.60
2023-01-27T11:21:47.276Z,136.52
2023-01-27T11:22:45.759Z,123.24
2023-01-27T11:23:44.748Z,135.24
2023-01-27T11:24:44.790Z,127.26
2023-01-27T11:25:44.765Z,129.95
2023-01-27T11:26:44.766Z,139.91
2023-01-27T11:27:44.777Z,138.17
2023-01-27T11:28:44.775Z,145.97
2023-01-27T11:29:44.873Z,143.26
2023-01-27T11:30:44.875Z,123.42
2023-01-27T11:31:44.822Z,140.36
2023-01-27T11:32:44.791Z,153.30
2023-01-27T11:33:44.810Z,138.74
2023-01-27T11:34:44.804Z,133.05
2023-01-27T11:35:44.841Z,138.35
2023-01-27T11:36:44.811Z,151.32
2023-01-27T11:37:44.832Z,152.37
2023-01-27T11:38:44.819Z,170.54
2023-01-27T11:39:44.807Z,176.34
2023-01-27T11:40:44.824Z,176.42
2023-01-27T11:41:44.844Z,176.82
2023-01-27T11:42:44.812Z,177.26
2023-01-27T11:43:44.820Z,179.30
2023-01-27T11:44:44.811Z,185.64
2023-01-27T11:45:44.918Z,180.02
2023-01-27T11:46:44.826Z,179.93
2023-01-27T11:47:44.821Z,186.08
2023-01-27T11:48:44.823Z,189.80
2023-01-27T11:49:44.819Z,192.42
2023-01-27T11:50:44.845Z,194.08
2023-01-27T11:51:44.846Z,193.34
2023-01-27T11:52:44.872Z,194.57
2023-01-27T11:53:45.282Z,194.47
2023-01-27T11:54:44.821Z,195.04
2023-01-27T11:55:44.812Z,194.98
2023-01-27T11:56:44.859Z,198.20
2023-01-27T11:57:44.817Z,200.41
2023-01-27T11:58:44.815Z,201.18
2023-01-27T11:59:44.819Z,201.54
2023-01-27T12:00:44.805Z,201.15
2023-01-27T12:01:44.893Z,202.12
2023-01-27T12:02:45.039Z,202.41
2023-01-27T12:03:44.875Z,202.12
2023-01-27T12:04:44.864Z,203.88
2023-01-27T12:05:44.799Z,204.25
2023-01-27T12:06:44.802Z,204.20
2023-01-27T12:09:44.821Z,203.89
2023-01-27T12:10:44.813Z,205.88
2023-01-27T12:11:44.782Z,207.71
2023-01-27T12:12:44.786Z,206.96
2023-01-27T12:13:44.773Z,207.72
2023-01-27T12:14:44.779Z,206.16
2023-01-27T12:15:44.837Z,205.74
2023-01-27T12:16:44.763Z,206.67
2023-01-27T12:17:44.767Z,206.75
2023-01-27T12:18:44.756Z,206.80
2023-01-27T12:19:44.758Z,206.77
2023-01-27T12:20:44.732Z,206.23
2023-01-27T12:21:44.733Z,206.34
2023-01-27T12:22:44.732Z,206.52
2023-01-27T12:23:44.724Z,206.03
2023-01-27T12:24:44.717Z,206.76
2023-01-27T12:25:44.760Z,207.51
2023-01-27T12:26:44.726Z,205.89
2023-01-27T12:27:44.687Z,204.77
2023-01-27T12:28:44.690Z,207.03
2023-01-27T12:29:44.668Z,206.02
2023-01-27T12:30:44.784Z,206.08
2023-01-27T12:31:44.739Z,206.36
2023-01-27T12:33:44.668Z,207.80
2023-01-27T18:54:43.634Z,119.38
2023-01-27T18:55:43.656Z,118.65
2023-01-27T18:56:43.642Z,115.39
2023-01-27T18:57:43.649Z,114.63
2023-01-27T18:58:43.647Z,117.17
2023-01-27T18:59:43.656Z,119.28
2023-01-27T19:00:43.671Z,118.52
2023-01-27T19:01:43.686Z,114.76
2023-01-27T19:02:43.667Z,113.02
2023-01-27T19:03:43.656Z,115.28
2023-01-27T19:04:43.686Z,117.59
2023-01-27T19:05:43.658Z,116.86
2023-01-27T19:06:43.662Z,117.92
2023-01-27T19:07:43.658Z,113.86
2023-01-27T19:08:43.655Z,113.04
2023-01-27T19:09:43.657Z,116.54
2023-01-27T19:10:43.660Z,116.76
2023-01-27T19:11:43.655Z,116.15
2023-01-27T19:12:43.665Z,116.13
2023-01-27T19:13:43.663Z,112.53
2023-01-27T19:14:43.661Z,115.18
2023-01-27T19:15:43.666Z,115.07
2023-01-27T19:16:43.666Z,116.25
2023-01-27T19:17:43.662Z,116.94
2023-01-27T19:18:43.661Z,115.24
2023-01-27T19:19:43.710Z,111.23
2023-01-27T19:20:43.674Z,114.03
2023-01-27T19:21:43.673Z,114.19
2023-01-27T19:22:43.687Z,116.20
2023-01-27T19:23:43.683Z,115.60
2023-01-27T19:24:43.698Z,112.05
2023-01-27T19:25:43.677Z,112.53
2023-01-27T19:26:43.674Z,112.78
2023-01-27T19:27:43.683Z,115.86
2023-01-27T19:28:43.677Z,115.85
2023-01-27T19:29:43.677Z,116.39
2023-01-27T19:30:43.774Z,112.36
2023-01-27T19:31:43.725Z,112.33
2023-01-27T19:32:43.690Z,113.06
2023-01-27T19:33:43.697Z,114.35
2023-01-27T19:34:43.692Z,115.72
2023-01-27T19:35:43.693Z,115.75
2023-01-27T19:36:43.682Z,111.22
2023-01-27T19:37:43.678Z,114.34
2023-01-27T19:38:43.680Z,114.80
2023-01-27T19:39:43.679Z,115.18
2023-01-27T19:40:43.692Z,115.35
2023-01-27T19:41:43.676Z,112.15
2023-01-27T19:42:43.675Z,110.90
2023-01-27T19:43:43.677Z,112.75
2023-01-27T19:44:43.687Z,111.69
2023-01-27T19:45:43.701Z,114.81
2023-01-27T19:46:43.679Z,115.98
2023-01-27T19:47:43.684Z,111.37
2023-01-27T19:48:43.683Z,110.42
2023-01-27T19:49:43.692Z,113.89
2023-01-27T19:50:43.696Z,113.39
2023-01-27T19:51:43.686Z,114.58
2023-01-27T19:52:43.692Z,115.35
2023-01-27T19:53:43.681Z,111.39
2023-01-27T19:54:43.686Z,111.55
2023-01-27T19:55:43.695Z,111.97
2023-01-27T19:56:43.699Z,113.29
2023-01-27T19:57:43.695Z,113.47
2023-01-27T19:58:43.704Z,113.40
2023-01-27T19:59:43.697Z,109.81
2023-01-27T20:00:43.796Z,110.78
2023-01-27T20:01:43.706Z,111.60
2023-01-27T20:02:43.701Z,112.91
2023-01-27T20:03:43.697Z,114.92
2023-01-27T20:04:43.784Z,111.89
2023-01-27T20:05:43.744Z,108.63
2023-01-27T20:06:43.711Z,110.19
2023-01-27T20:07:43.711Z,112.49
2023-01-27T20:08:43.748Z,112.75
2023-01-27T20:09:43.716Z,114.92
2023-01-27T20:10:43.720Z,114.83
2023-01-27T20:11:43.721Z,106.14
2023-01-27T20:12:43.716Z,108.80
2023-01-27T20:13:43.722Z,111.55
2023-01-27T20:14:43.748Z,113.09
2023-01-27T20:15:43.770Z,113.63
2023-01-27T20:16:43.777Z,108.15
2023-01-27T20:17:43.735Z,108.85
2023-01-27T20:18:43.737Z,109.46
2023-01-27T20:19:43.743Z,112.01
2023-01-27T20:20:43.733Z,113.73
2023-01-27T20:21:43.745Z,111.92
2023-01-27T20:22:43.740Z,107.25
2023-01-27T20:23:43.745Z,107.87
2023-01-27T20:24:43.747Z,110.58
2023-01-27T20:25:43.746Z,112.69
2023-01-27T20:26:43.757Z,111.37
2023-01-27T20:27:43.808Z,109.96
2023-01-27T20:28:43.775Z,105.59
2023-01-27T20:29:43.785Z,109.33
2023-01-27T20:30:43.833Z,110.06
2023-01-27T20:31:43.953Z,108.73
2023-01-27T20:32:43.793Z,111.07
2023-01-27T20:33:43.805Z,106.57
2023-01-27T20:34:43.803Z,106.01
2023-01-27T20:35:43.816Z,106.70
2023-01-27T20:36:43.828Z,108.76
2023-01-27T20:37:43.807Z,109.05
2023-01-27T20:38:43.829Z,110.04
2023-01-27T20:39:43.812Z,103.61
2023-01-27T20:40:43.819Z,105.98
2023-01-27T20:41:43.833Z,107.76
2023-01-27T20:42:43.836Z,109.48
2023-01-27T20:43:43.840Z,110.72
2023-01-27T20:44:43.844Z,110.24
2023-01-27T20:45:43.865Z,106.07
2023-01-27T20:46:43.857Z,103.99
2023-01-27T20:47:43.859Z,107.86
2023-01-27T20:48:43.875Z,108.70
2023-01-27T20:49:43.864Z,109.59
2023-01-27T20:50:43.868Z,110.11
2023-01-27T20:51:43.884Z,105.65
2023-01-27T20:52:43.883Z,104.52
2023-01-27T20:53:43.881Z,107.55
2023-01-27T20:54:43.888Z,109.19
2023-01-27T20:55:43.892Z,110.22
2023-01-27T20:56:43.907Z,106.40
2023-01-27T20:57:43.902Z,102.94
2023-01-27T20:58:43.907Z,104.58
2023-01-27T20:59:43.915Z,106.17
2023-01-27T21:00:43.904Z,110.65
2023-01-27T21:01:43.899Z,109.73
2023-01-27T21:02:43.911Z,105.43
2023-01-27T21:03:43.908Z,104.61
2023-01-27T21:04:43.907Z,104.17
2023-01-27T21:05:43.915Z,108.03
2023-01-27T21:06:43.910Z,110.10
2023-01-27T21:07:43.922Z,108.02
2023-01-27T21:08:43.990Z,101.88
2023-01-27T21:09:43.940Z,103.37
2023-01-27T21:10:43.951Z,106.15
2023-01-27T21:11:43.962Z,106.96
2023-01-27T21:12:43.962Z,109.46
2023-01-27T21:13:43.968Z,108.30
2023-01-27T21:14:43.964Z,102.18
2023-01-27T21:15:44.505Z,103.93
2023-01-27T21:16:44.035Z,105.92
2023-01-27T21:17:44.003Z,107.74
2023-01-27T21:18:44.011Z,111.33
2023-01-27T21:19:44.007Z,105.92
2023-01-27T21:20:43.994Z,101.69
2023-01-27T21:21:44.012Z,104.19
2023-01-27T21:22:44.010Z,105.98
2023-01-27T21:23:44.009Z,109.71
2023-01-27T21:24:44.025Z,109.81
2023-01-27T21:25:44.033Z,106.71